createdAt,value
2019-03-17T00:02:22.879Z,99.30
2019-03-17T00:04:56.480Z,99.20
2019-03-17T00:07:30.495Z,99.20
2019-03-17T00:10:06.539Z,99.10
2019-03-17T00:12:40.620Z,99.10
2019-03-17T00:15:14.830Z,99.20
2019-03-17T00:17:48.923Z,99.20
2019-03-17T00:20:22.702Z,99.10
2019-03-17T00:22:56.467Z,99.40
2019-03-17T00:25:30.230Z,99.10
2019-03-17T00:28:04.294Z,98.80
2019-03-17T00:30:38.483Z,99.00
2019-03-17T00:33:11.829Z,99.00
2019-03-17T00:35:45.426Z,98.90
2019-03-17T00:38:19.255Z,99.00
2019-03-17T00:40:54.366Z,99.00
2019-03-17T00:43:28.083Z,99.20
2019-03-17T00:46:01.828Z,98.80
2019-03-17T00:48:35.691Z,98.80
2019-03-17T00:51:09.491Z,98.80
2019-03-17T00:53:44.639Z,98.90
2019-03-17T00:56:18.554Z,98.90
2019-03-17T00:58:52.148Z,98.80
2019-03-17T01:01:25.715Z,98.80
2019-03-17T01:04:00.043Z,98.80
2019-03-17T01:06:34.887Z,98.90
2019-03-17T01:09:08.881Z,98.90
2019-03-17T01:11:42.589Z,98.90
2019-03-17T01:14:16.474Z,98.90
2019-03-17T01:16:50.122Z,98.90
2019-03-17T01:19:24.076Z,98.90
2019-03-17T01:21:59.395Z,98.90
2019-03-17T01:24:34.071Z,99.00
2019-03-17T01:27:07.900Z,99.00
2019-03-17T01:29:41.484Z,99.10
2019-03-17T01:32:15.000Z,99.00
2019-03-17T01:34:48.871Z,99.00
2019-03-17T01:37:22.711Z,98.90
2019-03-17T01:39:56.341Z,99.00
2019-03-17T01:42:30.796Z,99.10
2019-03-17T01:45:04.662Z,99.00
2019-03-17T01:47:38.325Z,99.10
2019-03-17T01:50:12.211Z,99.00
2019-03-17T01:52:45.743Z,99.00
2019-03-17T01:55:19.168Z,99.10
2019-03-17T01:57:53.024Z,99.00
2019-03-17T02:00:26.966Z,98.90
2019-03-17T02:03:01.371Z,99.10
2019-03-17T02:05:35.156Z,99.20
2019-03-17T02:08:09.004Z,99.20
2019-03-17T02:10:42.457Z,99.40
2019-03-17T02:13:16.652Z,99.30
2019-03-17T02:15:51.389Z,99.40
2019-03-17T02:18:25.673Z,99.50
2019-03-17T02:20:59.490Z,99.60
2019-03-17T02:23:33.440Z,99.60
2019-03-17T02:26:08.458Z,99.50
2019-03-17T02:28:42.104Z,99.90
2019-03-17T02:31:17.207Z,99.50
2019-03-17T02:34:12.351Z,99.50
2019-03-17T02:36:45.964Z,99.40
2019-03-17T02:39:20.053Z,99.30
2019-03-17T02:41:53.859Z,99.40
2019-03-17T02:44:29.395Z,99.50
2019-03-17T02:47:03.296Z,99.50
2019-03-17T02:49:38.878Z,99.40
2019-03-17T02:52:13.229Z,99.40
2019-03-17T02:54:47.335Z,99.50
2019-03-17T02:57:21.301Z,99.50
2019-03-17T02:59:55.508Z,99.40
2019-03-17T03:02:29.469Z,99.30
2019-03-17T03:05:02.990Z,99.60
2019-03-17T03:07:36.799Z,99.20
2019-03-17T03:10:10.689Z,99.30
2019-03-17T03:12:44.964Z,99.30
2019-03-17T03:15:19.451Z,99.20
2019-03-17T03:17:53.022Z,99.20
2019-03-17T03:20:27.090Z,99.30
2019-03-17T03:23:02.422Z,99.30
2019-03-17T03:25:36.693Z,99.30
2019-03-17T03:28:10.999Z,99.30
2019-03-17T03:30:45.146Z,99.40
2019-03-17T03:33:19.243Z,99.30
2019-03-17T03:36:09.160Z,99.10
2019-03-17T03:38:28.406Z,99.20
2019-03-17T03:41:02.178Z,99.20
2019-03-17T03:43:35.900Z,99.30
2019-03-17T03:46:10.142Z,99.30
2019-03-17T03:48:44.291Z,99.40
2019-03-17T03:51:18.150Z,99.40
2019-03-17T03:53:52.248Z,99.30
2019-03-17T03:56:26.081Z,99.40
2019-03-17T03:59:01.249Z,99.50
2019-03-17T04:01:35.667Z,99.50
2019-03-17T04:04:10.582Z,99.50
2019-03-17T04:06:44.841Z,99.40
2019-03-17T04:09:18.842Z,99.40
2019-03-17T04:11:53.052Z,99.50
2019-03-17T04:14:26.785Z,99.60
2019-03-17T04:17:01.371Z,99.60
2019-03-17T04:19:36.648Z,99.70
2019-03-17T04:22:09.782Z,99.60
2019-03-17T04:24:43.541Z,99.60
2019-03-17T04:27:17.761Z,99.70
2019-03-17T04:29:51.695Z,99.90
2019-03-17T04:32:25.902Z,99.90
2019-03-17T04:34:59.515Z,99.90
2019-03-17T04:37:33.439Z,99.90
2019-03-17T04:40:09.974Z,99.90
2019-03-17T04:42:44.690Z,99.90
2019-03-17T04:45:19.049Z,99.90
2019-03-17T04:47:53.894Z,99.90
2019-03-17T04:50:35.143Z,99.90
2019-03-17T04:53:09.806Z,99.90
2019-03-17T04:55:43.507Z,99.90
2019-03-17T04:58:18.111Z,99.90
2019-03-17T05:00:52.159Z,99.90
2019-03-17T05:03:26.208Z,99.90
2019-03-17T05:06:00.825Z,99.90
2019-03-17T05:08:34.617Z,99.90
2019-03-17T05:11:09.575Z,99.90
2019-03-17T05:13:44.120Z,99.90
2019-03-17T05:16:18.684Z,99.90
2019-03-17T05:18:54.650Z,99.90
2019-03-17T05:21:32.096Z,99.90
2019-03-17T05:24:06.422Z,99.90
2019-03-17T05:26:46.753Z,99.90
2019-03-17T05:29:20.876Z,99.90
2019-03-17T05:31:57.039Z,99.90
2019-03-17T05:34:32.079Z,99.90
2019-03-17T05:37:06.453Z,99.90
2019-03-17T05:39:40.988Z,99.90
2019-03-17T05:42:15.838Z,99.90
2019-03-17T05:44:50.897Z,99.90
2019-03-17T05:47:24.190Z,99.90
2019-03-17T05:49:58.832Z,99.90
2019-03-17T05:52:33.671Z,99.70
2019-03-17T05:55:10.198Z,99.70
2019-03-17T05:57:45.670Z,99.80
2019-03-17T06:00:21.035Z,99.90
2019-03-17T06:02:55.675Z,99.90
2019-03-17T06:05:30.017Z,99.80
2019-03-17T06:08:04.630Z,99.70
2019-03-17T06:10:39.471Z,99.80
2019-03-17T06:13:14.527Z,99.80
2019-03-17T06:15:49.041Z,99.80
2019-03-17T06:18:24.496Z,99.90
2019-03-17T06:21:00.328Z,99.90
2019-03-17T06:23:35.385Z,99.90
2019-03-17T06:26:11.328Z,99.70
2019-03-17T06:28:45.503Z,99.60
2019-03-17T06:31:19.818Z,99.70
2019-03-17T06:33:54.297Z,99.70
2019-03-17T06:36:29.135Z,99.70
2019-03-17T06:39:05.003Z,99.60
2019-03-17T06:41:40.761Z,99.70
2019-03-17T06:44:15.265Z,99.50
2019-03-17T06:46:49.627Z,99.50
2019-03-17T06:49:24.128Z,99.80
2019-03-17T06:52:02.055Z,99.70
2019-03-17T06:54:36.869Z,99.80
2019-03-17T06:57:11.756Z,99.90
2019-03-17T06:59:46.599Z,99.90
2019-03-17T07:02:21.067Z,99.80
2019-03-17T07:04:55.948Z,99.60
2019-03-17T07:07:30.039Z,99.70
2019-03-17T07:10:04.803Z,99.70
2019-03-17T07:12:39.996Z,99.80
2019-03-17T07:15:13.086Z,99.90
2019-03-17T07:17:48.275Z,99.80
2019-03-17T07:20:23.062Z,99.70
2019-03-17T07:22:57.988Z,99.80
2019-03-17T07:25:32.682Z,99.80
2019-03-17T07:28:07.066Z,99.80
2019-03-17T07:30:42.249Z,99.80
2019-03-17T07:33:15.064Z,99.90
2019-03-17T07:35:49.864Z,99.90
2019-03-17T07:38:24.809Z,99.90
2019-03-17T07:41:02.055Z,99.90
2019-03-17T07:43:39.187Z,99.90
2019-03-17T07:46:16.752Z,99.90
2019-03-17T07:48:51.451Z,99.90
2019-03-17T07:51:27.023Z,99.90
2019-03-17T07:54:01.985Z,99.90
2019-03-17T07:56:38.535Z,99.90
2019-03-17T07:59:14.298Z,99.90
2019-03-17T08:01:49.110Z,99.90
2019-03-17T08:04:24.840Z,99.90
2019-03-17T08:06:59.462Z,99.90
2019-03-17T08:09:34.446Z,99.90
2019-03-17T08:12:12.146Z,99.90
2019-03-17T08:14:46.873Z,99.90
2019-03-17T08:17:22.928Z,99.90
2019-03-17T08:22:58.836Z,99.90
2019-03-17T08:25:33.951Z,99.90
2019-03-17T08:28:08.271Z,99.90
2019-03-17T08:30:53.147Z,99.90
2019-03-17T08:33:23.890Z,99.90
2019-03-17T08:35:59.813Z,99.90
2019-03-17T08:38:36.416Z,99.90
2019-03-17T08:41:12.165Z,99.90
2019-03-17T08:43:54.150Z,99.90
2019-03-17T08:46:24.982Z,99.90
2019-03-17T08:49:00.087Z,99.90
2019-03-17T08:51:34.671Z,99.90
2019-03-17T08:54:09.619Z,99.90
2019-03-17T08:56:45.927Z,99.90
2019-03-17T08:59:20.362Z,99.90
2019-03-17T09:01:54.539Z,99.90
2019-03-17T09:04:29.070Z,99.90
2019-03-17T09:07:05.022Z,99.90
2019-03-17T09:09:41.788Z,99.90
2019-03-17T09:12:17.933Z,99.90
2019-03-17T09:14:52.429Z,99.90
2019-03-17T09:17:26.926Z,99.90
2019-03-17T09:20:01.025Z,99.90
2019-03-17T09:22:35.316Z,99.90
2019-03-17T09:25:10.487Z,99.90
2019-03-17T09:27:45.929Z,99.90
2019-03-17T09:30:25.462Z,99.90
2019-03-17T09:32:59.323Z,99.90
2019-03-17T09:35:35.882Z,99.90
2019-03-17T09:38:10.655Z,99.90
2019-03-17T09:40:45.451Z,99.90
2019-03-17T09:43:19.610Z,99.90
2019-03-17T09:45:54.407Z,99.90
2019-03-17T09:48:30.648Z,99.90
2019-03-17T09:51:05.036Z,99.90
2019-03-17T09:53:39.202Z,99.90
2019-03-17T09:56:13.715Z,99.90
2019-03-17T09:58:48.593Z,99.90
2019-03-17T10:01:23.011Z,99.90
2019-03-17T10:03:57.585Z,99.90
2019-03-17T10:06:32.279Z,99.90
2019-03-17T10:09:07.220Z,99.90
2019-03-17T10:11:41.077Z,99.90
2019-03-17T10:14:15.760Z,99.90
2019-03-17T10:16:49.861Z,99.90
2019-03-17T10:19:24.940Z,99.90
2019-03-17T10:21:59.050Z,99.90
2019-03-17T10:24:33.116Z,99.90
2019-03-17T10:27:08.892Z,99.90
2019-03-17T10:29:42.995Z,99.90
2019-03-17T10:32:16.916Z,99.90
2019-03-17T10:34:51.035Z,99.90
2019-03-17T10:37:24.938Z,99.90
2019-03-17T10:39:58.757Z,99.90
2019-03-17T10:42:34.390Z,99.90
2019-03-17T10:45:10.708Z,99.90
2019-03-17T10:47:45.323Z,99.90
2019-03-17T10:50:23.604Z,99.90
2019-03-17T10:52:58.127Z,99.90
2019-03-17T10:55:32.257Z,99.90
2019-03-17T10:58:05.926Z,99.90
2019-03-17T11:00:40.461Z,99.90
2019-03-17T11:03:14.768Z,99.90
2019-03-17T11:05:49.090Z,99.90
2019-03-17T11:08:22.850Z,99.90
2019-03-17T11:10:57.069Z,99.90
2019-03-17T11:13:31.942Z,99.90
2019-03-17T11:16:07.029Z,99.90
2019-03-17T11:18:41.259Z,99.90
2019-03-17T11:21:15.979Z,99.90
2019-03-17T11:23:50.087Z,99.90
2019-03-17T11:26:24.914Z,99.90
2019-03-17T11:29:00.690Z,99.90
2019-03-17T11:31:35.178Z,99.90
2019-03-17T11:34:10.356Z,99.90
2019-03-17T11:36:45.145Z,99.90
2019-03-17T11:39:19.554Z,99.90
2019-03-17T11:41:53.661Z,99.90
2019-03-17T11:44:28.176Z,99.90
2019-03-17T11:47:02.951Z,99.90
2019-03-17T11:49:37.341Z,99.90
2019-03-17T11:52:11.529Z,99.90
2019-03-17T11:54:47.181Z,99.90
2019-03-17T11:57:21.012Z,99.90
2019-03-17T11:59:55.707Z,99.90
2019-03-17T12:02:29.652Z,99.90
2019-03-17T12:05:04.776Z,99.90
2019-03-17T12:07:37.863Z,99.90
2019-03-17T12:10:14.280Z,99.90
2019-03-17T12:12:49.763Z,99.90
2019-03-17T12:15:28.174Z,99.90
2019-03-17T12:18:04.170Z,99.90
2019-03-17T12:20:38.519Z,99.90
2019-03-17T12:23:13.077Z,99.90
2019-03-17T12:25:47.541Z,99.90
2019-03-17T12:28:22.243Z,99.90
2019-03-17T12:30:56.378Z,99.90
2019-03-17T12:33:30.815Z,99.90
2019-03-17T12:36:04.992Z,99.90
2019-03-17T12:38:40.338Z,99.90
2019-03-17T12:41:16.892Z,99.90
2019-03-17T12:43:53.741Z,99.90
2019-03-17T12:46:30.466Z,99.90
2019-03-17T12:49:05.392Z,99.90
2019-03-17T12:51:41.250Z,99.90
2019-03-17T12:54:20.265Z,99.90
2019-03-17T12:57:02.784Z,99.90
2019-03-17T12:59:37.687Z,99.90
2019-03-17T13:02:12.817Z,99.90
2019-03-17T13:04:46.241Z,99.90
2019-03-17T13:07:22.236Z,99.90
2019-03-17T13:09:57.923Z,99.90
2019-03-17T13:12:32.216Z,99.90
2019-03-17T13:15:13.016Z,99.90
2019-03-17T13:17:47.849Z,99.90
2019-03-17T13:20:30.144Z,99.90
2019-03-17T13:23:06.062Z,99.90
2019-03-17T13:25:40.025Z,99.90
2019-03-17T13:28:17.402Z,99.90
2019-03-17T13:30:53.456Z,99.90
2019-03-17T13:33:29.284Z,99.90
2019-03-17T13:36:03.669Z,99.90
2019-03-17T13:38:39.054Z,99.90
2019-03-17T13:41:13.637Z,99.90
2019-03-17T13:43:48.056Z,99.90
2019-03-17T13:46:22.312Z,99.90
2019-03-17T13:48:58.079Z,99.90
2019-03-17T13:51:36.126Z,99.90
2019-03-17T13:54:11.937Z,99.90
2019-03-17T13:56:47.968Z,99.90
2019-03-17T13:59:26.127Z,99.90
2019-03-17T14:02:02.587Z,99.90
2019-03-17T14:04:37.428Z,99.90
2019-03-17T14:07:13.128Z,99.90
2019-03-17T14:09:47.200Z,99.90
2019-03-17T14:12:24.807Z,99.90
2019-03-17T14:14:59.816Z,99.90
2019-03-17T14:17:34.557Z,99.90
2019-03-17T14:20:11.571Z,99.90
2019-03-17T14:22:49.689Z,99.90
2019-03-17T14:25:36.331Z,99.90
2019-03-17T14:28:12.446Z,99.90
2019-03-17T14:30:46.894Z,99.90
2019-03-17T14:33:21.846Z,99.90
2019-03-17T14:35:58.140Z,99.90
2019-03-17T14:38:32.421Z,99.90
2019-03-17T14:41:08.066Z,99.90
2019-03-17T14:43:44.342Z,99.90
2019-03-17T14:46:18.867Z,99.90
2019-03-17T14:48:53.370Z,99.90
2019-03-17T14:51:31.455Z,99.90
2019-03-17T14:54:05.781Z,99.90
2019-03-17T14:56:42.161Z,99.90
2019-03-17T14:59:22.386Z,99.90
2019-03-17T15:02:00.979Z,99.90
2019-03-17T15:04:36.994Z,99.90
2019-03-17T15:07:11.343Z,99.90
2019-03-17T15:09:47.894Z,99.90
2019-03-17T15:12:23.689Z,99.90
2019-03-17T15:15:00.040Z,99.90
2019-03-17T15:17:34.963Z,99.90
2019-03-17T15:20:13.120Z,99.90
2019-03-17T15:22:51.121Z,99.90
2019-03-17T15:25:25.897Z,99.90
2019-03-17T15:28:02.288Z,99.90
2019-03-17T15:30:42.176Z,99.90
2019-03-17T15:33:19.075Z,99.90
2019-03-17T15:35:54.429Z,99.90
2019-03-17T15:38:34.089Z,99.90
2019-03-17T15:41:18.628Z,99.90
2019-03-17T15:43:48.492Z,99.90
2019-03-17T15:46:22.304Z,99.90
2019-03-17T15:48:57.579Z,99.90
2019-03-17T15:51:30.357Z,99.90
2019-03-17T15:54:06.248Z,99.90
2019-03-17T15:56:42.809Z,99.90
2019-03-17T15:59:18.284Z,99.90
2019-03-17T16:01:52.768Z,99.90
2019-03-17T16:04:28.595Z,99.90
2019-03-17T16:07:02.578Z,99.90
2019-03-17T16:09:39.690Z,99.90
2019-03-17T16:12:16.565Z,99.90
2019-03-17T16:14:52.759Z,99.90
2019-03-17T16:17:30.009Z,99.90
2019-03-17T16:20:09.324Z,99.90
2019-03-17T16:22:44.171Z,99.90
2019-03-17T16:25:20.635Z,99.90
2019-03-17T16:27:55.067Z,99.90
2019-03-17T16:30:31.437Z,99.90
2019-03-17T16:33:11.306Z,99.90
2019-03-17T16:35:47.584Z,99.90
2019-03-17T16:38:22.071Z,99.90
2019-03-17T16:40:59.023Z,99.90
2019-03-17T16:43:39.679Z,99.90
2019-03-17T16:46:14.961Z,99.90
2019-03-17T16:48:54.602Z,99.90
2019-03-17T16:51:30.660Z,99.90
2019-03-17T16:54:10.004Z,99.90
2019-03-17T16:57:01.785Z,99.90
2019-03-17T16:59:36.721Z,99.90
2019-03-17T17:02:10.915Z,99.90
2019-03-17T17:04:45.623Z,99.90
2019-03-17T17:07:22.594Z,99.90
2019-03-17T17:09:56.859Z,99.90
2019-03-17T17:12:31.397Z,99.90
2019-03-17T17:15:06.864Z,99.90
2019-03-17T17:17:41.474Z,99.90
2019-03-17T17:20:20.264Z,99.90
2019-03-17T17:22:55.419Z,99.90
2019-03-17T17:25:29.710Z,99.90
2019-03-17T17:28:04.697Z,99.90
2019-03-17T17:30:42.413Z,99.90
2019-03-17T17:33:19.977Z,99.90
2019-03-17T17:36:03.031Z,99.90
2019-03-17T17:38:38.593Z,99.90
2019-03-17T17:41:13.318Z,99.90
2019-03-17T17:43:47.820Z,99.90
2019-03-17T17:46:24.508Z,99.90
2019-03-17T17:48:59.017Z,99.90
2019-03-17T17:51:33.220Z,99.90
2019-03-17T17:54:08.157Z,99.90
2019-03-17T17:56:41.372Z,99.90
2019-03-17T17:59:17.327Z,99.90
2019-03-17T18:01:53.874Z,99.90
2019-03-17T18:04:28.208Z,99.90
2019-03-17T18:07:02.932Z,99.90
2019-03-17T18:09:36.915Z,99.90
2019-03-17T18:12:20.322Z,99.90
2019-03-17T18:14:46.488Z,99.90
2019-03-17T18:17:20.532Z,99.90
2019-03-17T18:19:57.360Z,99.90
2019-03-17T18:22:32.263Z,99.90
2019-03-17T18:25:07.905Z,99.90
2019-03-17T18:27:42.092Z,99.90
2019-03-17T18:30:23.556Z,99.90
2019-03-17T18:32:57.941Z,99.90
2019-03-17T18:35:32.215Z,99.90
2019-03-17T18:38:06.047Z,99.90
2019-03-17T18:40:42.262Z,99.90
2019-03-17T18:43:15.040Z,99.90
2019-03-17T18:45:53.739Z,99.90
2019-03-17T18:48:28.298Z,99.90
2019-03-17T18:51:02.377Z,99.90
2019-03-17T18:53:36.258Z,99.90
2019-03-17T18:56:10.158Z,99.90
2019-03-17T18:58:44.935Z,99.90
2019-03-17T19:01:18.585Z,99.90
2019-03-17T19:03:52.369Z,99.90
2019-03-17T19:06:26.608Z,99.90
2019-03-17T19:09:00.989Z,99.90
2019-03-17T19:11:35.131Z,99.90
2019-03-17T19:14:08.667Z,99.90
2019-03-17T19:16:43.112Z,99.90
2019-03-17T19:19:18.072Z,99.90
2019-03-17T19:21:51.237Z,99.90
2019-03-17T19:24:24.959Z,99.90
2019-03-17T19:26:59.441Z,99.90
2019-03-17T19:29:33.441Z,99.90
2019-03-17T19:32:07.610Z,99.90
2019-03-17T19:34:41.337Z,99.90
2019-03-17T19:37:15.094Z,99.90
2019-03-17T19:39:49.232Z,99.90
2019-03-17T19:42:22.738Z,99.90
2019-03-17T19:44:56.357Z,99.90
2019-03-17T19:47:31.256Z,99.90
2019-03-17T19:50:10.588Z,99.90
2019-03-17T19:52:44.920Z,99.90
2019-03-17T19:55:19.392Z,99.90
2019-03-17T19:57:53.764Z,99.90
2019-03-17T20:00:28.237Z,99.90
2019-03-17T20:03:02.245Z,99.90
2019-03-17T20:05:36.491Z,99.90
2019-03-17T20:08:10.406Z,99.90
2019-03-17T20:10:44.959Z,99.90
2019-03-17T20:13:19.276Z,99.90
2019-03-17T20:15:53.533Z,99.90
2019-03-17T20:18:27.784Z,99.90
2019-03-17T20:21:01.766Z,99.90
2019-03-17T20:23:35.957Z,99.90
2019-03-17T20:26:09.959Z,99.90
2019-03-17T20:28:44.235Z,99.90
2019-03-17T20:31:17.934Z,99.90
2019-03-17T20:33:51.370Z,99.90
2019-03-17T20:36:25.346Z,99.90
2019-03-17T20:38:59.074Z,99.90
2019-03-17T20:41:32.754Z,99.90
2019-03-17T20:44:06.375Z,99.90
2019-03-17T20:46:40.455Z,99.90
2019-03-17T20:49:14.667Z,99.90
2019-03-17T20:51:48.464Z,99.90
2019-03-17T20:54:22.590Z,99.90
2019-03-17T20:56:56.852Z,99.90
2019-03-17T20:59:30.428Z,99.90
2019-03-17T21:02:03.919Z,99.90
2019-03-17T21:04:37.825Z,99.90
2019-03-17T21:07:12.652Z,99.90
2019-03-17T21:09:48.105Z,99.90
2019-03-17T21:12:21.805Z,99.90
2019-03-17T21:14:55.818Z,99.90
2019-03-17T21:17:30.385Z,99.90
2019-03-17T21:20:04.242Z,99.90
2019-03-17T21:22:38.431Z,99.90
2019-03-17T21:25:12.167Z,99.90
2019-03-17T21:27:46.058Z,99.90
2019-03-17T21:30:22.096Z,99.90
2019-03-17T21:32:57.756Z,99.90
2019-03-17T21:35:32.065Z,99.90
2019-03-17T21:38:05.972Z,99.90
2019-03-17T21:40:56.169Z,99.90
2019-03-17T21:43:16.015Z,99.90
2019-03-17T21:45:50.253Z,99.90
2019-03-17T21:48:24.449Z,99.90
2019-03-17T21:50:58.675Z,99.90
2019-03-17T21:53:32.021Z,99.90
2019-03-17T21:56:07.235Z,99.90
2019-03-17T21:58:41.159Z,99.90
2019-03-17T22:01:15.566Z,99.90
2019-03-17T22:03:50.359Z,99.90
2019-03-17T22:06:24.245Z,99.90
2019-03-17T22:08:58.615Z,99.90
2019-03-17T22:11:32.941Z,99.90
2019-03-17T22:14:12.023Z,99.90
2019-03-17T22:16:52.868Z,99.90
2019-03-17T22:19:26.671Z,99.90
2019-03-17T22:22:01.074Z,99.90
2019-03-17T22:24:35.283Z,99.90
2019-03-17T22:27:09.390Z,99.90
2019-03-17T22:29:43.401Z,99.90
2019-03-17T22:32:17.795Z,99.90
2019-03-17T22:34:52.954Z,99.90
2019-03-17T22:37:25.055Z,99.90
2019-03-17T22:39:58.504Z,99.90
2019-03-17T22:42:33.214Z,99.90
2019-03-17T22:45:09.698Z,99.90
2019-03-17T22:47:44.109Z,99.90
2019-03-17T22:50:19.295Z,99.90
2019-03-17T22:52:51.575Z,99.90
2019-03-17T22:55:25.531Z,99.90
2019-03-17T22:57:59.504Z,99.90
2019-03-17T23:00:37.879Z,99.90
2019-03-17T23:03:13.200Z,99.90
2019-03-17T23:05:50.157Z,99.90
2019-03-17T23:08:24.005Z,99.90
2019-03-17T23:10:58.345Z,99.90
2019-03-17T23:13:33.555Z,99.90
2019-03-17T23:16:07.146Z,99.90
2019-03-17T23:18:41.252Z,99.90
2019-03-17T23:21:15.370Z,99.90
2019-03-17T23:23:49.182Z,99.90
2019-03-17T23:26:23.069Z,99.90
2019-03-17T23:28:57.103Z,99.90
2019-03-17T23:31:32.213Z,99.90
2019-03-17T23:34:06.066Z,99.90
2019-03-17T23:36:39.919Z,99.90
2019-03-17T23:39:13.658Z,99.90
2019-03-17T23:41:47.458Z,99.90
2019-03-17T23:44:21.085Z,99.90
2019-03-17T23:46:55.325Z,99.90
2019-03-17T23:49:29.059Z,99.90
2019-03-17T23:52:03.248Z,99.90
2019-03-17T23:54:36.940Z,99.90
2019-03-17T23:57:10.639Z,99.90
2019-03-17T23:59:44.964Z,99.90
